Список аэропортов
Фактическая погода:

26 апреля, 12:00
Температура: +20°C (+19.8*)
Ветер: юго-западный 7 м/с
Давление: *762 мм
Без существ. явл.
Время (МСК)Темп. СВетерВлажностьДавлениеОблачностьОсадки
09:00+18Ю, 4 м/с51%1017 гПаоблачно
10:00+19Ю, 5 м/с49%1017 гПаоблачно
11:00+20Ю, 6 м/с48%1016 гПаоблачно
12:00+20Ю, 6 м/с47%1016 гПаоблачно
13:00+20Ю, 6 м/с46%1017 гПаоблачно
14:00+20ЮЗ, 6 м/с45%1016 гПаоблачно
15:00+20ЮЗ, 6 м/с47%1016 гПаоблачно
16:00+19ЮЗ, 5 м/с47%1016 гПаоблачно
17:00+19ЮЗ, 4 м/с48%1016 гПаоблачно
18:00+18ЮЗ, 3 м/с50%1015 гПаоблачно
19:00+17ЮЗ, 2 м/с54%1015 гПас прояснениями
20:00+15Ю, 2 м/с61%1015 гПаоблачно
21:00+14Ю, 2 м/с64%1015 гПаоблачно
22:00+13Ю, 1 м/с70%1015 гПаоблачно
23:00+12Штиль 74%1014 гПаоблачно
27 апреля
00:00+11ЮВ, 1 м/с74%1014 гПас прояснениями
01:00+11В, 1 м/с70%1014 гПамалооблачно
02:00+11В, 2 м/с65%1014 гПамалооблачно
03:00+11В, 2 м/с63%1014 гПаясно
04:00+11В, 3 м/с58%1013 гПаясно
05:00+11В, 3 м/с61%1013 гПаясно
06:00+11В, 3 м/с60%1013 гПаясно
07:00+12В, 3 м/с58%1013 гПаясно
08:00+16СВ, 2 м/с56%1013 гПаясно
09:00+20СВ, 2 м/с44%1012 гПаясно
10:00+22С, 3 м/с44%1012 гПаясно
11:00+23С, 3 м/с43%1012 гПаясно
12:00+24СЗ, 2 м/с43%1012 гПаясно
13:00+25СЗ, 4 м/с42%1012 гПаясно
14:00+25З, 5 м/с42%1012 гПаясно
15:00+24З, 5 м/с41%1012 гПаясно
16:00+24З, 5 м/с42%1011 гПаясно
17:00+23З, 4 м/с43%1012 гПаясно
18:00+22З, 4 м/с43%1012 гПаясно
19:00+20СЗ, 3 м/с44%1012 гПаясно
20:00+18З, 2 м/с50%1012 гПас прояснениями
21:00+16З, 2 м/с59%1013 гПаясно
22:00+15З, 2 м/с65%1014 гПамалооблачно
23:00+14З, 1 м/с69%1014 гПаясно
28 апреля
00:00+14СЗ, 3 м/с71%1014 гПаясно
01:00+16С, 6 м/с59%1015 гПаясно
02:00+15СВ, 6 м/с59%1015 гПамалооблачно
03:00+14СВ, 5 м/с64%1015 гПаясно
04:00+14СВ, 5 м/с68%1016 гПаясно
05:00+13СВ, 5 м/с71%1017 гПаясно
06:00+13СВ, 5 м/с74%1018 гПаясно
07:00+14СВ, 6 м/с70%1018 гПаясно
08:00+15СВ, 8 м/с60%1019 гПаясно
09:00+16СВ, 7 м/с54%1020 гПаясно